createdAt,value
2022-11-01T00:02:20.008Z,100630.06
2022-11-01T00:04:46.638Z,100633.06
2022-11-01T00:07:13.191Z,100626.03
2022-11-01T00:09:39.762Z,100634.22
2022-11-01T00:12:06.614Z,100624.19
2022-11-01T00:14:33.174Z,100623.72
2022-11-01T00:16:59.810Z,100616.66
2022-11-01T00:19:26.386Z,100625.78
2022-11-01T00:21:52.941Z,100618.03
2022-11-01T00:24:21.991Z,100615.47
2022-11-01T00:29:22.563Z,100613.44
2022-11-01T00:31:50.022Z,100621.81
2022-11-01T00:34:17.173Z,100620.50
2022-11-01T00:36:44.122Z,100610.09
2022-11-01T00:39:14.486Z,100612.91
2022-11-01T00:41:41.186Z,100614.97
2022-11-01T00:44:07.707Z,100611.94
2022-11-01T00:46:34.637Z,100613.47
2022-11-01T00:49:02.280Z,100608.94
2022-11-01T00:51:28.859Z,100604.06
2022-11-01T00:53:56.025Z,100604.09
2022-11-01T00:56:24.493Z,100602.59
2022-11-01T00:58:51.099Z,100607.66
2022-11-01T01:01:21.923Z,100608.50
2022-11-01T01:03:48.566Z,100596.19
2022-11-01T01:06:15.144Z,100603.63
2022-11-01T01:08:41.792Z,100593.78
2022-11-01T01:11:08.334Z,100581.47
2022-11-01T01:13:34.862Z,100583.66
2022-11-01T01:16:01.488Z,100581.28
2022-11-01T01:18:28.469Z,100577.00
2022-11-01T01:21:06.627Z,100575.91
2022-11-01T01:23:33.332Z,100579.59
2022-11-01T01:25:59.929Z,100578.94
2022-11-01T01:28:30.653Z,100570.94
2022-11-01T01:30:57.194Z,100563.06
2022-11-01T01:33:23.727Z,100560.44
2022-11-01T01:35:50.612Z,100562.69
2022-11-01T01:38:17.285Z,100569.44
2022-11-01T01:40:47.815Z,100565.84
2022-11-01T01:43:22.969Z,100566.13
2022-11-01T01:45:49.533Z,100566.03
2022-11-01T01:48:22.529Z,100557.03
2022-11-01T01:50:57.255Z,100558.91
2022-11-01T01:53:28.761Z,100556.25
2022-11-01T01:56:12.759Z,100555.13
2022-11-01T01:59:01.604Z,100561.63
2022-11-01T02:01:32.187Z,100556.16
2022-11-01T02:03:59.070Z,100558.47
2022-11-01T02:06:26.551Z,100541.44
2022-11-01T02:08:56.940Z,100542.53
2022-11-01T02:11:23.659Z,100556.47
2022-11-01T02:13:50.601Z,100562.63
2022-11-01T02:16:32.571Z,100554.69
2022-11-01T02:19:25.025Z,100543.88
2022-11-01T02:21:56.578Z,100547.50
2022-11-01T02:24:46.394Z,100536.47
2022-11-01T02:27:51.705Z,100546.63
2022-11-01T02:30:21.470Z,100545.47
2022-11-01T02:32:54.695Z,100538.47
2022-11-01T02:35:43.466Z,100541.25
2022-11-01T02:38:28.263Z,100537.78
2022-11-01T02:41:00.050Z,100539.72
2022-11-01T02:43:48.468Z,100531.34
2022-11-01T02:46:36.505Z,100522.22
2022-11-01T02:49:04.304Z,100526.13
2022-11-01T02:51:33.011Z,100520.03
2022-11-01T02:54:07.987Z,100514.84
2022-11-01T02:56:35.677Z,100518.94
2022-11-01T02:59:02.528Z,100521.19
2022-11-01T03:01:34.510Z,100523.31
2022-11-01T03:04:02.278Z,100530.16
2022-11-01T03:06:39.908Z,100523.81
2022-11-01T03:09:11.430Z,100532.47
2022-11-01T03:12:01.832Z,100538.81
2022-11-01T03:14:54.664Z,100541.53
2022-11-01T03:17:26.426Z,100532.28
2022-11-01T03:19:52.939Z,100527.81
2022-11-01T03:22:23.579Z,100542.00
2022-11-01T03:25:42.954Z,100541.91
2022-11-01T03:28:17.414Z,100540.34
2022-11-01T03:30:51.951Z,100530.44
2022-11-01T03:33:20.501Z,100520.84
2022-11-01T03:35:51.811Z,100522.91
2022-11-01T03:38:22.969Z,100536.03
2022-11-01T03:41:03.490Z,100529.09
2022-11-01T03:43:32.581Z,100528.37
2022-11-01T03:45:59.168Z,100536.09
2022-11-01T03:48:25.940Z,100537.53
2022-11-01T03:50:56.214Z,100535.00
2022-11-01T03:53:23.311Z,100532.94
2022-11-01T03:55:50.185Z,100531.87
2022-11-01T03:58:16.995Z,100531.41
2022-11-01T04:00:45.084Z,100533.94
2022-11-01T04:03:12.564Z,100525.25
2022-11-01T04:05:40.843Z,100523.69
2022-11-01T04:08:08.769Z,100522.22
2022-11-01T04:10:35.442Z,100512.38
2022-11-01T04:13:02.811Z,100510.59
2022-11-01T04:15:48.396Z,100502.31
2022-11-01T04:18:37.544Z,100508.84
2022-11-01T04:21:06.741Z,100497.34
2022-11-01T04:23:34.328Z,100508.78
2022-11-01T04:26:01.935Z,100507.66
2022-11-01T04:28:28.811Z,100504.25
2022-11-01T04:30:55.706Z,100492.81
2022-11-01T04:33:22.304Z,100505.28
2022-11-01T04:35:49.086Z,100497.87
2022-11-01T04:38:16.174Z,100498.69
2022-11-01T04:40:43.466Z,100494.47
2022-11-01T04:43:10.846Z,100495.13
2022-11-01T04:45:40.878Z,100510.72
2022-11-01T04:48:16.920Z,100502.00
2022-11-01T04:50:45.531Z,100502.19
2022-11-01T04:53:15.178Z,100497.87
2022-11-01T04:55:41.742Z,100501.22
2022-11-01T04:58:09.835Z,100508.97
2022-11-01T05:00:37.447Z,100499.00
2022-11-01T05:03:06.938Z,100509.81
2022-11-01T05:05:36.956Z,100511.28
2022-11-01T05:08:11.666Z,100504.72
2022-11-01T05:10:41.556Z,100508.78
2022-11-01T05:13:09.474Z,100507.44
2022-11-01T05:15:40.208Z,100505.25
2022-11-01T05:18:14.628Z,100509.88
2022-11-01T05:20:41.170Z,100501.69
2022-11-01T05:23:08.986Z,100497.00
2022-11-01T05:25:38.070Z,100503.66
2022-11-01T05:28:08.167Z,100501.47
2022-11-01T05:30:35.719Z,100506.47
2022-11-01T05:33:03.625Z,100494.69
2022-11-01T05:35:31.074Z,100494.53
2022-11-01T05:37:58.170Z,100490.75
2022-11-01T05:40:25.194Z,100493.16
2022-11-01T05:42:52.196Z,100493.50
2022-11-01T05:45:18.832Z,100498.69
2022-11-01T05:47:45.438Z,100501.25
2022-11-01T05:50:14.089Z,100502.47
2022-11-01T05:52:41.132Z,100496.88
2022-11-01T05:55:08.702Z,100497.13
2022-11-01T05:57:35.776Z,100512.13
2022-11-01T06:00:03.506Z,100514.34
2022-11-01T06:02:33.945Z,100509.56
2022-11-01T06:05:03.052Z,100501.22
2022-11-01T06:07:30.128Z,100506.69
2022-11-01T06:09:56.782Z,100510.56
2022-11-01T06:12:25.120Z,100509.88
2022-11-01T06:14:52.108Z,100516.50
2022-11-01T06:17:18.766Z,100520.62
2022-11-01T06:19:45.458Z,100512.72
2022-11-01T06:22:12.029Z,100518.72
2022-11-01T06:24:38.604Z,100519.75
2022-11-01T06:27:09.820Z,100523.28
2022-11-01T06:29:38.006Z,100525.37
2022-11-01T06:32:05.222Z,100521.00
2022-11-01T06:34:32.294Z,100518.16
2022-11-01T06:36:59.435Z,100510.31
2022-11-01T06:39:26.447Z,100514.13
2022-11-01T06:41:52.992Z,100508.91
2022-11-01T06:44:19.557Z,100513.00
2022-11-01T06:46:46.117Z,100521.81
2022-11-01T06:49:16.420Z,100521.66
2022-11-01T06:54:26.201Z,100527.72
2022-11-01T06:56:52.790Z,100531.00
2022-11-01T06:59:19.602Z,100524.72
2022-11-01T07:01:46.264Z,100529.88
2022-11-01T07:04:13.147Z,100532.59
2022-11-01T07:06:40.039Z,100524.84
2022-11-01T07:09:06.681Z,100525.50
2022-11-01T07:11:33.771Z,100527.53
2022-11-01T07:14:00.331Z,100535.97
2022-11-01T07:16:27.508Z,100534.66
2022-11-01T07:18:54.369Z,100535.22
2022-11-01T07:21:21.128Z,100537.91
2022-11-01T07:26:43.212Z,100534.09
2022-11-01T07:29:09.732Z,100544.09
2022-11-01T07:31:38.837Z,100536.16
2022-11-01T07:34:06.053Z,100528.06
2022-11-01T07:36:32.882Z,100530.81
2022-11-01T07:38:59.429Z,100534.88
2022-11-01T07:41:30.383Z,100542.28
2022-11-01T07:43:56.990Z,100541.03
2022-11-01T07:46:23.773Z,100532.69
2022-11-01T07:48:51.407Z,100538.44
2022-11-01T07:51:18.512Z,100545.69
2022-11-01T07:53:45.073Z,100540.12
2022-11-01T07:56:11.688Z,100542.53
2022-11-01T07:58:38.505Z,100541.66
2022-11-01T08:01:05.164Z,100541.72
2022-11-01T08:03:31.783Z,100546.88
2022-11-01T08:05:58.336Z,100545.94
2022-11-01T08:08:24.872Z,100543.69
2022-11-01T08:10:51.432Z,100537.28
2022-11-01T08:13:25.234Z,100539.94
2022-11-01T08:15:53.248Z,100534.78
2022-11-01T08:18:22.687Z,100533.16
2022-11-01T08:20:49.865Z,100534.63
2022-11-01T08:23:16.926Z,100531.22
2022-11-01T08:25:43.744Z,100533.47
2022-11-01T08:28:16.101Z,100534.94
2022-11-01T08:30:44.204Z,100530.03
2022-11-01T08:33:11.515Z,100526.72
2022-11-01T08:35:38.223Z,100523.81
2022-11-01T08:38:05.146Z,100525.69
2022-11-01T08:40:33.137Z,100537.38
2022-11-01T08:42:59.905Z,100528.19
2022-11-01T08:45:27.690Z,100535.59
2022-11-01T08:47:59.357Z,100536.16
2022-11-01T08:50:27.720Z,100528.50
2022-11-01T08:52:54.503Z,100528.75
2022-11-01T08:55:21.806Z,100532.31
2022-11-01T08:57:49.040Z,100530.31
2022-11-01T09:00:16.806Z,100524.31
2022-11-01T09:02:43.360Z,100526.25
2022-11-01T09:05:09.924Z,100526.25
2022-11-01T09:07:37.587Z,100536.03
2022-11-01T09:10:05.005Z,100529.84
2022-11-01T09:12:31.848Z,100526.53
2022-11-01T09:14:58.438Z,100532.50
2022-11-01T09:17:25.081Z,100532.13
2022-11-01T09:19:51.663Z,100529.38
2022-11-01T09:22:18.198Z,100532.59
2022-11-01T09:24:45.213Z,100524.25
2022-11-01T09:27:12.342Z,100528.87
2022-11-01T09:29:38.930Z,100522.53
2022-11-01T09:34:40.723Z,100521.78
2022-11-01T09:37:07.265Z,100518.03
2022-11-01T09:39:33.820Z,100519.03
2022-11-01T09:42:04.745Z,100515.03
2022-11-01T09:44:40.438Z,100522.94
2022-11-01T09:47:15.295Z,100524.91
2022-11-01T09:49:46.387Z,100520.16
2022-11-01T09:52:20.295Z,100516.81
2022-11-01T09:54:47.322Z,100518.78
2022-11-01T09:57:28.782Z,100514.66
2022-11-01T10:00:13.522Z,100520.53
2022-11-01T10:02:48.529Z,100516.13
2022-11-01T10:05:34.146Z,100516.97
2022-11-01T10:08:18.874Z,100512.44
2022-11-01T10:11:09.911Z,100506.94
2022-11-01T10:13:48.683Z,100506.91
2022-11-01T10:16:22.163Z,100507.34
2022-11-01T10:19:01.065Z,100506.94
2022-11-01T10:21:37.064Z,100501.69
2022-11-01T10:24:08.075Z,100507.91
2022-11-01T10:26:34.782Z,100500.78
2022-11-01T10:29:13.040Z,100498.66
2022-11-01T10:31:45.412Z,100499.41
2022-11-01T10:34:30.795Z,100494.22
2022-11-01T10:37:14.316Z,100493.41
2022-11-01T10:39:57.933Z,100489.22
2022-11-01T10:42:30.600Z,100493.88
2022-11-01T10:45:23.135Z,100486.75
2022-11-01T10:47:55.477Z,100486.78
2022-11-01T10:50:25.704Z,100494.28
2022-11-01T10:52:56.999Z,100497.97
2022-11-01T10:55:38.654Z,100499.53
2022-11-01T10:58:13.448Z,100499.69
2022-11-01T11:00:42.359Z,100495.97
2022-11-01T11:03:31.138Z,100492.25
2022-11-01T11:06:04.818Z,100494.16
2022-11-01T11:08:32.787Z,100486.84
2022-11-01T11:11:04.180Z,100495.81
2022-11-01T11:13:31.703Z,100479.66
2022-11-01T11:16:06.516Z,100489.75
2022-11-01T11:18:38.906Z,100484.59
2022-11-01T11:21:11.746Z,100477.31
2022-11-01T11:23:56.098Z,100474.97
2022-11-01T11:26:22.879Z,100478.31
2022-11-01T11:28:53.545Z,100480.66
2022-11-01T11:31:31.542Z,100472.06
2022-11-01T11:34:20.084Z,100466.50
2022-11-01T11:36:53.760Z,100476.44
2022-11-01T11:39:29.477Z,100475.59
2022-11-01T11:42:19.153Z,100465.94
2022-11-01T11:44:55.399Z,100459.31
2022-11-01T11:47:29.108Z,100460.34
2022-11-01T11:49:58.360Z,100457.75
2022-11-01T11:52:38.554Z,100460.75
2022-11-01T11:55:25.917Z,100459.22
2022-11-01T11:57:54.895Z,100459.22
2022-11-01T12:00:24.029Z,100457.13
2022-11-01T12:02:50.957Z,100455.44
2022-11-01T12:05:20.084Z,100459.72
2022-11-01T12:07:49.860Z,100460.84
2022-11-01T12:10:34.152Z,100457.06
2022-11-01T12:13:33.517Z,100440.66
2022-11-01T12:16:23.972Z,100441.28
2022-11-01T12:19:27.552Z,100443.44
2022-11-01T12:21:57.028Z,100445.25
2022-11-01T12:24:32.543Z,100447.44
2022-11-01T12:27:07.157Z,100436.66
2022-11-01T12:29:39.036Z,100439.91
2022-11-01T12:32:19.692Z,100435.03
2022-11-01T12:34:49.074Z,100433.03
2022-11-01T12:37:32.406Z,100427.53
2022-11-01T12:40:21.188Z,100434.97
2022-11-01T12:42:52.019Z,100417.81
2022-11-01T12:45:47.237Z,100421.09
2022-11-01T12:48:28.818Z,100417.91
2022-11-01T12:51:11.033Z,100425.25
2022-11-01T12:54:12.285Z,100419.13
2022-11-01T12:56:39.937Z,100413.66
2022-11-01T12:59:10.397Z,100424.19
2022-11-01T13:01:54.614Z,100411.31
2022-11-01T13:04:31.399Z,100404.84
2022-11-01T13:07:23.107Z,100416.63
2022-11-01T13:10:18.411Z,100413.78
2022-11-01T13:12:50.715Z,100408.88
2022-11-01T13:15:28.136Z,100411.41
2022-11-01T13:18:10.094Z,100415.06
2022-11-01T13:21:05.708Z,100403.63
2022-11-01T13:23:37.493Z,100406.41
2022-11-01T13:26:22.198Z,100408.22
2022-11-01T13:29:01.028Z,100398.66
2022-11-01T13:31:48.658Z,100399.66
2022-11-01T13:34:40.664Z,100400.66
2022-11-01T13:37:22.136Z,100399.00
2022-11-01T13:40:28.037Z,100400.25
2022-11-01T13:43:05.191Z,100398.78
2022-11-01T13:45:43.831Z,100403.88
2022-11-01T13:48:59.937Z,100401.56
2022-11-01T13:51:34.434Z,100390.78
2022-11-01T13:54:11.517Z,100394.44
2022-11-01T13:56:54.172Z,100394.28
2022-11-01T13:59:45.142Z,100393.37
2022-11-01T14:02:24.032Z,100394.56
2022-11-01T14:05:13.623Z,100402.13
2022-11-01T14:07:45.738Z,100401.22
2022-11-01T14:10:17.968Z,100392.28
2022-11-01T14:12:57.600Z,100393.59
2022-11-01T14:15:26.859Z,100390.84
2022-11-01T14:17:55.181Z,100391.44
2022-11-01T14:20:33.790Z,100393.25
2022-11-01T14:23:29.055Z,100390.22
2022-11-01T14:26:21.041Z,100389.87
2022-11-01T14:28:58.959Z,100394.06
2022-11-01T14:31:28.382Z,100392.34
2022-11-01T14:33:59.953Z,100389.37
2022-11-01T14:36:31.304Z,100393.97
2022-11-01T14:39:08.939Z,100400.09
2022-11-01T14:41:40.596Z,100395.19
2022-11-01T14:44:29.849Z,100395.41
2022-11-01T14:47:00.861Z,100395.41
2022-11-01T14:49:40.099Z,100383.34
2022-11-01T14:52:21.943Z,100387.13
2022-11-01T14:55:00.570Z,100398.56
2022-11-01T14:57:32.550Z,100388.88
2022-11-01T14:59:59.890Z,100393.97
2022-11-01T15:02:28.385Z,100403.63
2022-11-01T15:05:00.058Z,100393.37
2022-11-01T15:07:31.169Z,100398.75
2022-11-01T15:10:04.629Z,100400.66
2022-11-01T15:12:35.325Z,100397.28
2022-11-01T15:15:02.873Z,100404.78
2022-11-01T15:17:33.431Z,100409.34
2022-11-01T15:20:04.112Z,100408.56
2022-11-01T15:22:33.612Z,100419.44
2022-11-01T15:25:05.803Z,100427.37
2022-11-01T15:27:38.801Z,100413.84
2022-11-01T15:30:06.549Z,100416.31
2022-11-01T15:32:35.083Z,100414.88
2022-11-01T15:35:05.956Z,100417.84
2022-11-01T15:37:33.674Z,100415.09
2022-11-01T15:40:01.663Z,100419.41
2022-11-01T15:42:33.780Z,100416.34
2022-11-01T15:45:26.655Z,100408.78
2022-11-01T15:47:53.912Z,100415.53
2022-11-01T15:50:20.827Z,100418.97
2022-11-01T15:52:47.490Z,100428.41
2022-11-01T15:55:21.246Z,100411.09
2022-11-01T15:57:56.579Z,100426.72
2022-11-01T16:00:27.662Z,100418.88
2022-11-01T16:03:04.354Z,100418.59
2022-11-01T16:05:56.928Z,100417.25
2022-11-01T16:08:29.363Z,100422.47
2022-11-01T16:10:56.346Z,100441.41
2022-11-01T16:13:23.426Z,100435.91
2022-11-01T16:16:07.866Z,100434.50
2022-11-01T16:18:40.045Z,100429.06
2022-11-01T16:21:18.416Z,100430.72
2022-11-01T16:24:04.007Z,100422.97
2022-11-01T16:26:33.496Z,100426.44
2022-11-01T16:29:00.073Z,100421.22
2022-11-01T16:31:29.356Z,100423.53
2022-11-01T16:33:57.413Z,100420.91
2022-11-01T16:36:36.438Z,100417.25
2022-11-01T16:39:24.338Z,100425.38
2022-11-01T16:41:52.294Z,100422.84
2022-11-01T16:44:19.213Z,100425.00
2022-11-01T16:46:45.942Z,100429.28
2022-11-01T16:49:15.493Z,100429.38
2022-11-01T16:51:45.363Z,100418.75
2022-11-01T16:54:12.822Z,100431.09
2022-11-01T16:56:58.687Z,100420.09
2022-11-01T16:59:34.373Z,100422.53
2022-11-01T17:02:11.461Z,100423.28
2022-11-01T17:04:39.674Z,100427.66
2022-11-01T17:07:06.774Z,100431.53
2022-11-01T17:09:34.537Z,100431.53
2022-11-01T17:12:01.060Z,100436.72
2022-11-01T17:14:27.714Z,100440.87
2022-11-01T17:16:56.290Z,100430.41
2022-11-01T17:19:33.096Z,100443.84
2022-11-01T17:22:21.322Z,100441.91
2022-11-01T17:24:48.113Z,100433.66
2022-11-01T17:27:15.690Z,100431.53
2022-11-01T17:29:43.097Z,100438.66
2022-11-01T17:32:11.306Z,100436.22
2022-11-01T17:34:56.700Z,100437.25
2022-11-01T17:37:25.754Z,100444.47
2022-11-01T17:39:53.840Z,100440.97
2022-11-01T17:42:20.728Z,100440.81
2022-11-01T17:44:47.258Z,100443.94
2022-11-01T17:47:14.658Z,100440.97
2022-11-01T17:53:09.114Z,100442.38
2022-11-01T17:55:36.985Z,100438.31
2022-11-01T17:58:04.605Z,100440.75
2022-11-01T18:00:31.764Z,100441.88
2022-11-01T18:02:58.618Z,100437.28
2022-11-01T18:05:34.135Z,100432.28
2022-11-01T19:08:24.973Z,100429.87
2022-11-01T19:10:53.448Z,100427.75
2022-11-01T19:13:34.310Z,100426.78
2022-11-01T19:16:05.961Z,100437.19
2022-11-01T19:18:32.553Z,100432.81
2022-11-01T19:21:00.639Z,100434.75
2022-11-01T19:23:42.037Z,100438.53
2022-11-01T19:26:19.168Z,100430.66
2022-11-01T19:28:45.752Z,100431.56
2022-11-01T19:31:39.910Z,100427.81
2022-11-01T19:34:16.874Z,100430.22
2022-11-01T19:36:44.510Z,100424.56
2022-11-01T20:04:38.190Z,100440.81
2022-11-01T20:18:40.372Z,100446.81
2022-11-01T20:26:44.494Z,100439.69
2022-11-01T20:40:19.636Z,100441.63
2022-11-01T20:43:06.665Z,100450.50
2022-11-01T20:45:36.938Z,100451.56
2022-11-01T20:48:04.290Z,100455.03
2022-11-01T20:50:30.974Z,100449.97
2022-11-01T20:55:39.378Z,100437.44
2022-11-01T21:45:35.539Z,100426.28
2022-11-01T21:48:19.639Z,100432.00
2022-11-01T21:58:31.886Z,100425.88
2022-11-01T22:01:00.416Z,100431.62
2022-11-01T22:03:26.963Z,100426.59
2022-11-01T22:05:53.517Z,100432.38
2022-11-01T22:08:20.055Z,100435.34
2022-11-01T22:10:46.646Z,100437.53
2022-11-01T22:13:13.739Z,100441.94
2022-11-01T22:15:40.426Z,100438.19
2022-11-01T22:18:17.223Z,100439.94
2022-11-01T22:20:45.432Z,100447.13
2022-11-01T22:23:11.968Z,100439.81
2022-11-01T22:36:40.534Z,100442.97
2022-11-01T22:39:25.232Z,100440.81
2022-11-01T22:41:52.170Z,100449.06
2022-11-01T22:44:25.441Z,100440.75
2022-11-01T22:47:02.791Z,100448.31
2022-11-01T22:53:04.816Z,100441.78
2022-11-01T22:55:32.294Z,100442.34
2022-11-01T22:58:12.566Z,100439.63
2022-11-01T23:00:39.398Z,100437.66
2022-11-01T23:03:21.239Z,100436.31
2022-11-01T23:05:52.606Z,100431.69
2022-11-01T23:08:37.093Z,100428.88
2022-11-01T23:11:04.576Z,100433.63
2022-11-01T23:13:52.112Z,100432.19
2022-11-01T23:16:24.867Z,100433.25
2022-11-01T23:18:54.274Z,100433.56
2022-11-01T23:21:22.435Z,100448.59
2022-11-01T23:23:49.105Z,100439.84
2022-11-01T23:26:17.692Z,100441.78
2022-11-01T23:28:51.660Z,100442.09
2022-11-01T23:31:18.760Z,100444.53
2022-11-01T23:33:47.340Z,100459.25
2022-11-01T23:36:23.314Z,100457.13
2022-11-01T23:38:54.869Z,100460.22
2022-11-01T23:41:25.692Z,100469.84
2022-11-01T23:43:55.056Z,100472.28
2022-11-01T23:46:21.695Z,100467.84
2022-11-01T23:48:48.562Z,100465.94
2022-11-01T23:51:19.980Z,100464.94
2022-11-01T23:54:02.350Z,100475.44
2022-11-01T23:56:29.128Z,100469.69
2022-11-01T23:59:00.442Z,100471.84
